Accueil
METAR-TAF:

METAR-TAF

Aéroports :

Beverly, Massachusetts, États-Unis

latitude: 42-35-01N, longitude: 070-54-59W, altitude: 33 m

Observation

Le bulletin a été fait il y a 57 minutes, à 16:53 UTC
Vent 11 kt de ouest/sud-ouest avec des rafales jusqu'à 22 kt
Température 26°C
Humidité 65%
Pression 1009 hPa
Visibilité: 16.1 km
Nuages fragmentés à une hauteur de 3000 ft
Nuages fragmentés à une hauteur de 3500 ft

METAR: KBVY 201653Z 25011G22KT 10SM BKN030 BKN035 26/19 A2981 RMK AO2 SLP090 T02610189

Heure: 13:50 (17:50 UTC)


TAF: absent

Observations et prévisions météorologiques de plus de 4000 aéroports (messages METAR et TAF).

Les stations disponibles sont représentées par des disques jaunes et rouges sur la carte.

Passer la souris dessus pour voir le nom de la station.

Cliquer dessus pour voir les observations et prévisions météorologiques.

Pour changer de carte: cliquez sur les boutons verts avec une croix noire pour zoomer, sur le bouton vert avec un tiret pour effectuer un zoom arrière, ou sur les flèches vertes pour les cartes adjacentes.


METAR-TAF: